sensor_id;sensor_type;location;lat;lon;timestamp;temperature;humidity
1538;DHT22;12022;52.266;10.522;2023-03-01T00:01:23;0.70;99.90
1538;DHT22;12022;52.266;10.522;2023-03-01T00:03:51;0.70;99.90
1538;DHT22;12022;52.266;10.522;2023-03-01T00:06:20;0.70;99.90
1538;DHT22;12022;52.266;10.522;2023-03-01T00:08:47;0.70;99.90
1538;DHT22;12022;52.266;10.522;2023-03-01T00:13:48;0.70;99.90
1538;DHT22;12022;52.266;10.522;2023-03-01T00:16:19;0.70;99.90
1538;DHT22;12022;52.266;10.522;2023-03-01T00:18:46;0.70;99.90
1538;DHT22;12022;52.266;10.522;2023-03-01T00:21:13;0.70;99.90
1538;DHT22;12022;52.266;10.522;2023-03-01T00:23:40;0.70;99.90
1538;DHT22;12022;52.266;10.522;2023-03-01T00:26:10;0.70;99.90
1538;DHT22;12022;52.266;10.522;2023-03-01T00:28:38;0.70;99.90
1538;DHT22;12022;52.266;10.522;2023-03-01T00:31:07;0.60;99.90
1538;DHT22;12022;52.266;10.522;2023-03-01T00:33:35;0.60;99.90
1538;DHT22;12022;52.266;10.522;2023-03-01T00:36:02;0.50;99.90
1538;DHT22;12022;52.266;10.522;2023-03-01T00:38:29;0.50;99.90
1538;DHT22;12022;52.266;10.522;2023-03-01T00:41:06;0.50;99.90
1538;DHT22;12022;52.266;10.522;2023-03-01T00:43:34;0.40;99.90
1538;DHT22;12022;52.266;10.522;2023-03-01T00:46:11;0.50;99.90
1538;DHT22;12022;52.266;10.522;2023-03-01T00:48:39;0.40;99.90
1538;DHT22;12022;52.266;10.522;2023-03-01T00:51:08;0.40;99.90
1538;DHT22;12022;52.266;10.522;2023-03-01T00:53:35;0.40;99.90
1538;DHT22;12022;52.266;10.522;2023-03-01T00:56:04;0.40;99.90
1538;DHT22;12022;52.266;10.522;2023-03-01T00:58:32;0.30;99.90
1538;DHT22;12022;52.266;10.522;2023-03-01T01:01:00;0.40;99.90
1538;DHT22;12022;52.266;10.522;2023-03-01T01:03:27;0.40;99.90
1538;DHT22;12022;52.266;10.522;2023-03-01T01:05:54;0.60;99.90
1538;DHT22;12022;52.266;10.522;2023-03-01T01:08:20;0.30;99.90
1538;DHT22;12022;52.266;10.522;2023-03-01T01:10:48;0.30;99.90
1538;DHT22;12022;52.266;10.522;2023-03-01T01:13:15;0.30;99.90
1538;DHT22;12022;52.266;10.522;2023-03-01T01:15:41;0.30;99.90
1538;DHT22;12022;52.266;10.522;2023-03-01T01:18:08;0.30;99.90
1538;DHT22;12022;52.266;10.522;2023-03-01T01:20:36;0.30;99.90
1538;DHT22;12022;52.266;10.522;2023-03-01T01:23:05;0.30;99.90
1538;DHT22;12022;52.266;10.522;2023-03-01T01:25:35;0.30;99.90
1538;DHT22;12022;52.266;10.522;2023-03-01T01:28:03;0.20;99.90
1538;DHT22;12022;52.266;10.522;2023-03-01T01:30:30;0.20;99.90
1538;DHT22;12022;52.266;10.522;2023-03-01T01:32:56;0.20;99.90
1538;DHT22;12022;52.266;10.522;2023-03-01T01:35:23;0.20;99.90
1538;DHT22;12022;52.266;10.522;2023-03-01T01:37:51;0.20;99.90
1538;DHT22;12022;52.266;10.522;2023-03-01T01:40:18;0.20;99.90
1538;DHT22;12022;52.266;10.522;2023-03-01T01:42:45;0.20;99.90
1538;DHT22;12022;52.266;10.522;2023-03-01T01:48:19;0.10;99.90
1538;DHT22;12022;52.266;10.522;2023-03-01T01:50:53;0.10;99.90
1538;DHT22;12022;52.266;10.522;2023-03-01T01:53:22;0.10;99.90
1538;DHT22;12022;52.266;10.522;2023-03-01T01:55:54;0.10;99.90
1538;DHT22;12022;52.266;10.522;2023-03-01T01:58:27;0.10;99.90
1538;DHT22;12022;52.266;10.522;2023-03-01T02:00:55;0.10;99.90
1538;DHT22;12022;52.266;10.522;2023-03-01T02:03:26;0.10;99.90
1538;DHT22;12022;52.266;10.522;2023-03-01T02:06:00;0.10;99.90
1538;DHT22;12022;52.266;10.522;2023-03-01T02:08:32;0.00;99.90
1538;DHT22;12022;52.266;10.522;2023-03-01T02:11:01;0.00;99.90
1538;DHT22;12022;52.266;10.522;2023-03-01T02:13:31;0.00;99.90
1538;DHT22;12022;52.266;10.522;2023-03-01T02:16:02;0.00;99.90
1538;DHT22;12022;52.266;10.522;2023-03-01T02:18:29;0.00;99.90
1538;DHT22;12022;52.266;10.522;2023-03-01T02:21:08;0.00;99.90
1538;DHT22;12022;52.266;10.522;2023-03-01T02:23:36;0.00;99.90
1538;DHT22;12022;52.266;10.522;2023-03-01T02:26:33;0.00;99.90
1538;DHT22;12022;52.266;10.522;2023-03-01T02:29:01;0.00;99.90
1538;DHT22;12022;52.266;10.522;2023-03-01T02:31:28;0.00;99.90
1538;DHT22;12022;52.266;10.522;2023-03-01T02:34:13;-0.10;99.90
1538;DHT22;12022;52.266;10.522;2023-03-01T02:36:55;-0.10;99.90
1538;DHT22;12022;52.266;10.522;2023-03-01T02:39:33;-0.10;99.90
1538;DHT22;12022;52.266;10.522;2023-03-01T02:42:02;-0.10;99.90
1538;DHT22;12022;52.266;10.522;2023-03-01T02:44:30;-0.10;99.90
1538;DHT22;12022;52.266;10.522;2023-03-01T02:47:01;-0.10;99.90
1538;DHT22;12022;52.266;10.522;2023-03-01T02:49:31;-0.20;99.90
1538;DHT22;12022;52.266;10.522;2023-03-01T02:55:08;-0.10;99.90
1538;DHT22;12022;52.266;10.522;2023-03-01T02:57:38;-0.20;99.90
1538;DHT22;12022;52.266;10.522;2023-03-01T03:00:09;-0.20;99.90
1538;DHT22;12022;52.266;10.522;2023-03-01T03:02:37;-0.20;99.90
1538;DHT22;12022;52.266;10.522;2023-03-01T03:05:22;-0.20;99.90
1538;DHT22;12022;52.266;10.522;2023-03-01T03:07:51;-0.20;99.90
1538;DHT22;12022;52.266;10.522;2023-03-01T03:10:21;-0.10;99.90
1538;DHT22;12022;52.266;10.522;2023-03-01T03:12:54;-0.20;99.90
1538;DHT22;12022;52.266;10.522;2023-03-01T03:15:22;-0.30;99.90
1538;DHT22;12022;52.266;10.522;2023-03-01T03:17:51;-0.30;99.90
1538;DHT22;12022;52.266;10.522;2023-03-01T03:20:20;-0.30;99.90
1538;DHT22;12022;52.266;10.522;2023-03-01T03:22:49;-0.20;99.90
1538;DHT22;12022;52.266;10.522;2023-03-01T03:25:17;-0.30;99.90
1538;DHT22;12022;52.266;10.522;2023-03-01T03:27:47;-0.20;99.90
1538;DHT22;12022;52.266;10.522;2023-03-01T03:30:17;-0.30;99.90
1538;DHT22;12022;52.266;10.522;2023-03-01T03:32:45;-0.30;99.90
1538;DHT22;12022;52.266;10.522;2023-03-01T03:35:25;-0.30;99.90
1538;DHT22;12022;52.266;10.522;2023-03-01T03:37:53;-0.30;99.90
1538;DHT22;12022;52.266;10.522;2023-03-01T03:40:32;-0.40;99.90
1538;DHT22;12022;52.266;10.522;2023-03-01T03:42:59;-0.40;99.90
1538;DHT22;12022;52.266;10.522;2023-03-01T03:45:26;-0.40;99.90
1538;DHT22;12022;52.266;10.522;2023-03-01T03:47:53;-0.40;99.90
1538;DHT22;12022;52.266;10.522;2023-03-01T03:50:21;-0.40;99.90
1538;DHT22;12022;52.266;10.522;2023-03-01T03:52:47;-0.40;99.90
1538;DHT22;12022;52.266;10.522;2023-03-01T03:55:14;-0.20;99.90
1538;DHT22;12022;52.266;10.522;2023-03-01T03:57:47;-0.20;99.90
1538;DHT22;12022;52.266;10.522;2023-03-01T04:00:21;-0.40;99.90
1538;DHT22;12022;52.266;10.522;2023-03-01T04:02:49;-0.40;99.90
1538;DHT22;12022;52.266;10.522;2023-03-01T04:05:17;-0.40;99.90
1538;DHT22;12022;52.266;10.522;2023-03-01T04:07:45;-0.40;99.90
1538;DHT22;12022;52.266;10.522;2023-03-01T04:10:17;-0.50;99.90
1538;DHT22;12022;52.266;10.522;2023-03-01T04:12:44;-0.60;99.90
1538;DHT22;12022;52.266;10.522;2023-03-01T04:15:12;-0.60;99.90
1538;DHT22;12022;52.266;10.522;2023-03-01T04:17:46;-0.60;99.90
1538;DHT22;12022;52.266;10.522;2023-03-01T04:20:17;-0.70;99.90
1538;DHT22;12022;52.266;10.522;2023-03-01T04:22:44;-0.70;99.90
1538;DHT22;12022;52.266;10.522;2023-03-01T04:25:14;-0.70;99.90
1538;DHT22;12022;52.266;10.522;2023-03-01T04:27:41;-0.70;99.90
1538;DHT22;12022;52.266;10.522;2023-03-01T04:30:09;-0.70;99.90
1538;DHT22;12022;52.266;10.522;2023-03-01T04:32:36;-0.70;99.90
1538;DHT22;12022;52.266;10.522;2023-03-01T04:35:03;-0.70;99.90
1538;DHT22;12022;52.266;10.522;2023-03-01T04:37:31;-0.70;99.90
1538;DHT22;12022;52.266;10.522;2023-03-01T04:39:58;-0.70;99.90
1538;DHT22;12022;52.266;10.522;2023-03-01T04:42:24;-0.70;99.90
1538;DHT22;12022;52.266;10.522;2023-03-01T04:44:51;-0.70;99.90
1538;DHT22;12022;52.266;10.522;2023-03-01T04:47:18;-0.70;99.90
1538;DHT22;12022;52.266;10.522;2023-03-01T04:49:45;-0.70;99.90
1538;DHT22;12022;52.266;10.522;2023-03-01T04:52:12;-0.70;99.90
1538;DHT22;12022;52.266;10.522;2023-03-01T04:54:39;-0.80;99.90
1538;DHT22;12022;52.266;10.522;2023-03-01T04:57:06;-0.80;99.90
1538;DHT22;12022;52.266;10.522;2023-03-01T04:59:33;-0.80;99.90
1538;DHT22;12022;52.266;10.522;2023-03-01T05:02:02;-0.80;99.90
1538;DHT22;12022;52.266;10.522;2023-03-01T05:04:30;-0.80;99.90
1538;DHT22;12022;52.266;10.522;2023-03-01T05:06:57;-0.80;99.90
1538;DHT22;12022;52.266;10.522;2023-03-01T05:09:25;-0.80;99.90
1538;DHT22;12022;52.266;10.522;2023-03-01T05:11:52;-0.70;99.90
1538;DHT22;12022;52.266;10.522;2023-03-01T05:14:19;-0.90;99.90
1538;DHT22;12022;52.266;10.522;2023-03-01T05:16:46;-0.90;99.90
1538;DHT22;12022;52.266;10.522;2023-03-01T05:19:13;-0.90;99.90
1538;DHT22;12022;52.266;10.522;2023-03-01T05:21:43;-1.00;99.90
1538;DHT22;12022;52.266;10.522;2023-03-01T05:24:32;-1.00;99.90
1538;DHT22;12022;52.266;10.522;2023-03-01T05:27:01;-1.00;99.90
1538;DHT22;12022;52.266;10.522;2023-03-01T05:29:29;-1.00;99.90
1538;DHT22;12022;52.266;10.522;2023-03-01T05:31:58;-1.00;99.90
1538;DHT22;12022;52.266;10.522;2023-03-01T05:34:28;-1.10;99.90
1538;DHT22;12022;52.266;10.522;2023-03-01T05:36:55;-1.10;99.90
1538;DHT22;12022;52.266;10.522;2023-03-01T05:39:24;-1.20;99.90
1538;DHT22;12022;52.266;10.522;2023-03-01T05:41:54;-1.20;99.90
1538;DHT22;12022;52.266;10.522;2023-03-01T05:44:22;-1.20;99.90
1538;DHT22;12022;52.266;10.522;2023-03-01T05:46:49;-1.30;99.90
1538;DHT22;12022;52.266;10.522;2023-03-01T05:49:16;-1.30;99.90
1538;DHT22;12022;52.266;10.522;2023-03-01T05:51:47;-1.30;99.90
1538;DHT22;12022;52.266;10.522;2023-03-01T05:54:15;-1.30;99.90
1538;DHT22;12022;52.266;10.522;2023-03-01T05:56:43;-1.30;99.90
1538;DHT22;12022;52.266;10.522;2023-03-01T05:59:10;-1.30;99.90
1538;DHT22;12022;52.266;10.522;2023-03-01T06:01:38;-1.10;99.90
1538;DHT22;12022;52.266;10.522;2023-03-01T06:04:05;-1.20;99.90
1538;DHT22;12022;52.266;10.522;2023-03-01T06:06:36;-1.20;99.90
1538;DHT22;12022;52.266;10.522;2023-03-01T06:09:07;-1.20;99.90
1538;DHT22;12022;52.266;10.522;2023-03-01T06:11:36;-1.10;99.90
1538;DHT22;12022;52.266;10.522;2023-03-01T06:14:04;-1.10;99.90
1538;DHT22;12022;52.266;10.522;2023-03-01T06:16:33;-1.10;99.90
1538;DHT22;12022;52.266;10.522;2023-03-01T06:19:00;-1.10;99.90
1538;DHT22;12022;52.266;10.522;2023-03-01T06:21:27;-1.10;99.90
1538;DHT22;12022;52.266;10.522;2023-03-01T06:23:53;-1.10;99.90
1538;DHT22;12022;52.266;10.522;2023-03-01T06:26:20;-1.10;99.90
1538;DHT22;12022;52.266;10.522;2023-03-01T06:28:47;-1.10;99.90
1538;DHT22;12022;52.266;10.522;2023-03-01T06:31:15;-1.10;99.90
1538;DHT22;12022;52.266;10.522;2023-03-01T06:33:42;-1.10;99.90
1538;DHT22;12022;52.266;10.522;2023-03-01T06:36:11;-1.00;99.90
1538;DHT22;12022;52.266;10.522;2023-03-01T06:38:38;-1.00;99.90
1538;DHT22;12022;52.266;10.522;2023-03-01T06:41:07;-1.00;99.90
1538;DHT22;12022;52.266;10.522;2023-03-01T06:43:34;-0.70;99.90
1538;DHT22;12022;52.266;10.522;2023-03-01T06:46:04;-0.90;99.90
1538;DHT22;12022;52.266;10.522;2023-03-01T06:48:32;-0.90;99.90
1538;DHT22;12022;52.266;10.522;2023-03-01T06:51:00;-0.80;99.90
1538;DHT22;12022;52.266;10.522;2023-03-01T06:53:28;-0.60;99.90
1538;DHT22;12022;52.266;10.522;2023-03-01T06:55:56;-0.50;99.90
1538;DHT22;12022;52.266;10.522;2023-03-01T06:58:23;-0.60;99.90
1538;DHT22;12022;52.266;10.522;2023-03-01T07:00:50;-0.50;99.90
1538;DHT22;12022;52.266;10.522;2023-03-01T07:03:18;-0.40;99.90
1538;DHT22;12022;52.266;10.522;2023-03-01T07:05:48;-0.40;99.90
1538;DHT22;12022;52.266;10.522;2023-03-01T07:08:16;-0.30;99.90
1538;DHT22;12022;52.266;10.522;2023-03-01T07:10:43;-0.30;99.90
1538;DHT22;12022;52.266;10.522;2023-03-01T07:13:10;-0.30;99.90
1538;DHT22;12022;52.266;10.522;2023-03-01T07:15:37;-0.20;99.90
1538;DHT22;12022;52.266;10.522;2023-03-01T07:18:04;-0.10;99.90
1538;DHT22;12022;52.266;10.522;2023-03-01T07:20:31;-0.10;99.90
1538;DHT22;12022;52.266;10.522;2023-03-01T07:22:58;0.00;99.90
1538;DHT22;12022;52.266;10.522;2023-03-01T07:25:25;0.00;99.90
1538;DHT22;12022;52.266;10.522;2023-03-01T07:27:52;0.10;99.90
1538;DHT22;12022;52.266;10.522;2023-03-01T07:30:20;0.10;99.90
1538;DHT22;12022;52.266;10.522;2023-03-01T07:32:47;0.20;99.90
1538;DHT22;12022;52.266;10.522;2023-03-01T07:35:14;0.20;99.90
1538;DHT22;12022;52.266;10.522;2023-03-01T07:37:41;0.20;99.90
1538;DHT22;12022;52.266;10.522;2023-03-01T07:40:09;0.50;99.90
1538;DHT22;12022;52.266;10.522;2023-03-01T07:42:36;0.30;99.90
1538;DHT22;12022;52.266;10.522;2023-03-01T07:45:05;0.50;99.90
1538;DHT22;12022;52.266;10.522;2023-03-01T07:47:32;0.40;99.90
1538;DHT22;12022;52.266;10.522;2023-03-01T07:49:59;0.40;99.90
1538;DHT22;12022;52.266;10.522;2023-03-01T07:52:28;0.40;99.90
1538;DHT22;12022;52.266;10.522;2023-03-01T07:54:55;0.50;99.90
1538;DHT22;12022;52.266;10.522;2023-03-01T07:57:22;0.60;99.90
1538;DHT22;12022;52.266;10.522;2023-03-01T07:59:49;0.60;99.90
1538;DHT22;12022;52.266;10.522;2023-03-01T08:02:16;0.60;99.90
1538;DHT22;12022;52.266;10.522;2023-03-01T08:04:43;0.70;99.90
1538;DHT22;12022;52.266;10.522;2023-03-01T08:07:10;0.70;99.90
1538;DHT22;12022;52.266;10.522;2023-03-01T08:09:37;0.60;99.90
1538;DHT22;12022;52.266;10.522;2023-03-01T08:12:04;0.80;99.90
1538;DHT22;12022;52.266;10.522;2023-03-01T08:14:32;0.90;99.90
1538;DHT22;12022;52.266;10.522;2023-03-01T08:17:00;0.90;99.90
1538;DHT22;12022;52.266;10.522;2023-03-01T08:19:26;1.00;99.90
1538;DHT22;12022;52.266;10.522;2023-03-01T08:21:55;1.00;99.90
1538;DHT22;12022;52.266;10.522;2023-03-01T08:24:25;1.10;99.90
1538;DHT22;12022;52.266;10.522;2023-03-01T08:26:52;1.10;99.90
1538;DHT22;12022;52.266;10.522;2023-03-01T08:29:20;1.40;99.90
1538;DHT22;12022;52.266;10.522;2023-03-01T08:31:47;1.20;99.90
1538;DHT22;12022;52.266;10.522;2023-03-01T08:34:17;1.20;99.90
1538;DHT22;12022;52.266;10.522;2023-03-01T08:36:45;1.30;99.90
1538;DHT22;12022;52.266;10.522;2023-03-01T08:39:15;1.30;99.90
1538;DHT22;12022;52.266;10.522;2023-03-01T08:41:43;1.40;99.90
1538;DHT22;12022;52.266;10.522;2023-03-01T08:44:14;1.40;99.90
1538;DHT22;12022;52.266;10.522;2023-03-01T08:46:45;1.50;99.90
1538;DHT22;12022;52.266;10.522;2023-03-01T08:49:15;1.50;99.90
1538;DHT22;12022;52.266;10.522;2023-03-01T08:51:43;1.60;99.90
1538;DHT22;12022;52.266;10.522;2023-03-01T08:54:12;1.60;99.90
1538;DHT22;12022;52.266;10.522;2023-03-01T08:56:41;1.70;99.90
1538;DHT22;12022;52.266;10.522;2023-03-01T08:59:10;1.70;99.90
1538;DHT22;12022;52.266;10.522;2023-03-01T09:01:37;1.80;99.90
1538;DHT22;12022;52.266;10.522;2023-03-01T09:04:05;2.10;99.90
1538;DHT22;12022;52.266;10.522;2023-03-01T09:06:33;1.90;99.90
1538;DHT22;12022;52.266;10.522;2023-03-01T09:09:00;2.00;99.90
1538;DHT22;12022;52.266;10.522;2023-03-01T09:11:28;2.00;99.90
1538;DHT22;12022;52.266;10.522;2023-03-01T09:13:55;2.00;99.90
1538;DHT22;12022;52.266;10.522;2023-03-01T09:16:23;2.10;99.90
1538;DHT22;12022;52.266;10.522;2023-03-01T09:18:51;2.10;99.90
1538;DHT22;12022;52.266;10.522;2023-03-01T09:21:20;2.20;99.90
1538;DHT22;12022;52.266;10.522;2023-03-01T09:24:05;2.20;99.90
1538;DHT22;12022;52.266;10.522;2023-03-01T09:26:33;2.30;99.90
1538;DHT22;12022;52.266;10.522;2023-03-01T09:29:00;2.60;99.90
1538;DHT22;12022;52.266;10.522;2023-03-01T09:31:26;2.40;99.90
1538;DHT22;12022;52.266;10.522;2023-03-01T09:33:53;2.50;99.90
1538;DHT22;12022;52.266;10.522;2023-03-01T09:36:23;2.60;99.90
1538;DHT22;12022;52.266;10.522;2023-03-01T09:38:52;2.60;99.90
1538;DHT22;12022;52.266;10.522;2023-03-01T09:41:45;2.70;99.90
1538;DHT22;12022;52.266;10.522;2023-03-01T09:47:12;2.80;99.90
1538;DHT22;12022;52.266;10.522;2023-03-01T09:49:43;3.00;99.90
1538;DHT22;12022;52.266;10.522;2023-03-01T09:52:23;3.00;99.90
1538;DHT22;12022;52.266;10.522;2023-03-01T09:54:54;3.10;99.90
1538;DHT22;12022;52.266;10.522;2023-03-01T10:00:44;3.20;99.90
1538;DHT22;12022;52.266;10.522;2023-03-01T10:03:28;3.40;99.90
1538;DHT22;12022;52.266;10.522;2023-03-01T10:08:57;3.50;99.90
1538;DHT22;12022;52.266;10.522;2023-03-01T10:11:37;3.50;99.90
1538;DHT22;12022;52.266;10.522;2023-03-01T10:14:37;3.50;99.90
1538;DHT22;12022;52.266;10.522;2023-03-01T10:17:26;3.60;99.90
1538;DHT22;12022;52.266;10.522;2023-03-01T10:19:55;3.70;99.90
1538;DHT22;12022;52.266;10.522;2023-03-01T10:22:24;3.70;99.90
1538;DHT22;12022;52.266;10.522;2023-03-01T10:24:52;3.70;99.90
1538;DHT22;12022;52.266;10.522;2023-03-01T10:30:13;3.80;99.90
1538;DHT22;12022;52.266;10.522;2023-03-01T10:32:44;3.80;99.90
1538;DHT22;12022;52.266;10.522;2023-03-01T10:35:24;3.80;99.90
1538;DHT22;12022;52.266;10.522;2023-03-01T10:38:13;3.80;99.90
1538;DHT22;12022;52.266;10.522;2023-03-01T10:43:52;3.90;99.90
1538;DHT22;12022;52.266;10.522;2023-03-01T10:46:36;4.00;99.90
1538;DHT22;12022;52.266;10.522;2023-03-01T10:49:23;4.00;99.90
1538;DHT22;12022;52.266;10.522;2023-03-01T10:51:53;4.10;99.90
1538;DHT22;12022;52.266;10.522;2023-03-01T10:54:31;4.20;99.90
1538;DHT22;12022;52.266;10.522;2023-03-01T10:56:59;4.30;99.90
1538;DHT22;12022;52.266;10.522;2023-03-01T10:59:32;4.30;99.90
1538;DHT22;12022;52.266;10.522;2023-03-01T11:07:26;4.40;99.90
1538;DHT22;12022;52.266;10.522;2023-03-01T11:09:53;4.40;99.90
1538;DHT22;12022;52.266;10.522;2023-03-01T11:12:21;4.40;99.90
1538;DHT22;12022;52.266;10.522;2023-03-01T11:14:54;4.40;99.90
1538;DHT22;12022;52.266;10.522;2023-03-01T11:17:28;4.50;99.90
1538;DHT22;12022;52.266;10.522;2023-03-01T11:22:34;4.60;99.90
1538;DHT22;12022;52.266;10.522;2023-03-01T11:25:02;4.60;99.90
1538;DHT22;12022;52.266;10.522;2023-03-01T11:27:44;4.70;99.90
1538;DHT22;12022;52.266;10.522;2023-03-01T11:30:28;4.60;99.90
1538;DHT22;12022;52.266;10.522;2023-03-01T11:38:43;4.60;99.90
1538;DHT22;12022;52.266;10.522;2023-03-01T11:44:01;4.80;99.90
1538;DHT22;12022;52.266;10.522;2023-03-01T11:46:36;4.80;99.90
1538;DHT22;12022;52.266;10.522;2023-03-01T11:52:01;4.90;99.90
1538;DHT22;12022;52.266;10.522;2023-03-01T11:57:50;5.00;99.90
1538;DHT22;12022;52.266;10.522;2023-03-01T12:08:36;5.00;99.90
1538;DHT22;12022;52.266;10.522;2023-03-01T12:13:59;5.20;99.90
1538;DHT22;12022;52.266;10.522;2023-03-01T12:16:53;5.20;99.90
1538;DHT22;12022;52.266;10.522;2023-03-01T12:19:49;5.30;99.90
1538;DHT22;12022;52.266;10.522;2023-03-01T12:22:34;5.40;99.90
1538;DHT22;12022;52.266;10.522;2023-03-01T12:33:58;5.60;99.90
1538;DHT22;12022;52.266;10.522;2023-03-01T12:42:08;5.70;99.90
1538;DHT22;12022;52.266;10.522;2023-03-01T12:44:57;5.70;99.90
1538;DHT22;12022;52.266;10.522;2023-03-01T12:50:06;5.70;99.90
1538;DHT22;12022;52.266;10.522;2023-03-01T12:52:46;5.70;99.90
1538;DHT22;12022;52.266;10.522;2023-03-01T12:55:38;5.70;99.90
1538;DHT22;12022;52.266;10.522;2023-03-01T12:58:26;5.70;99.90
1538;DHT22;12022;52.266;10.522;2023-03-01T13:06:38;5.80;99.90
1538;DHT22;12022;52.266;10.522;2023-03-01T13:09:30;5.90;99.90
1538;DHT22;12022;52.266;10.522;2023-03-01T13:12:01;5.80;99.90
1538;DHT22;12022;52.266;10.522;2023-03-01T13:14:37;5.80;99.90
1538;DHT22;12022;52.266;10.522;2023-03-01T13:17:33;5.90;99.90
1538;DHT22;12022;52.266;10.522;2023-03-01T13:20:13;6.00;99.90
1538;DHT22;12022;52.266;10.522;2023-03-01T13:22:40;5.90;99.90
1538;DHT22;12022;52.266;10.522;2023-03-01T13:25:20;5.90;99.90
1538;DHT22;12022;52.266;10.522;2023-03-01T13:28:54;6.00;99.90
1538;DHT22;12022;52.266;10.522;2023-03-01T13:31:06;6.10;99.90
1538;DHT22;12022;52.266;10.522;2023-03-01T13:33:41;6.20;99.90
1538;DHT22;12022;52.266;10.522;2023-03-01T13:36:45;6.20;99.90
1538;DHT22;12022;52.266;10.522;2023-03-01T13:39:03;6.40;99.90
1538;DHT22;12022;52.266;10.522;2023-03-01T13:44:34;6.40;99.90
1538;DHT22;12022;52.266;10.522;2023-03-01T13:47:16;6.30;99.90
1538;DHT22;12022;52.266;10.522;2023-03-01T13:54:56;6.30;99.90
1538;DHT22;12022;52.266;10.522;2023-03-01T13:57:28;6.40;99.90
1538;DHT22;12022;52.266;10.522;2023-03-01T13:59:57;6.40;99.90
1538;DHT22;12022;52.266;10.522;2023-03-01T14:02:24;6.40;99.90
1538;DHT22;12022;52.266;10.522;2023-03-01T14:04:59;6.40;99.90
1538;DHT22;12022;52.266;10.522;2023-03-01T14:07:27;6.40;99.90
1538;DHT22;12022;52.266;10.522;2023-03-01T14:10:03;6.40;99.90
1538;DHT22;12022;52.266;10.522;2023-03-01T14:15:33;6.50;99.90
1538;DHT22;12022;52.266;10.522;2023-03-01T14:18:29;6.50;99.90
1538;DHT22;12022;52.266;10.522;2023-03-01T14:21:07;6.70;99.90
1538;DHT22;12022;52.266;10.522;2023-03-01T14:23:34;6.50;99.90
1538;DHT22;12022;52.266;10.522;2023-03-01T14:26:05;6.50;99.90
1538;DHT22;12022;52.266;10.522;2023-03-01T14:31:37;6.50;99.90
1538;DHT22;12022;52.266;10.522;2023-03-01T14:34:21;6.40;99.90
1538;DHT22;12022;52.266;10.522;2023-03-01T14:36:48;6.50;99.90
1538;DHT22;12022;52.266;10.522;2023-03-01T14:39:25;6.50;99.90
1538;DHT22;12022;52.266;10.522;2023-03-01T14:41:53;6.50;99.90
1538;DHT22;12022;52.266;10.522;2023-03-01T14:44:22;6.50;99.90
1538;DHT22;12022;52.266;10.522;2023-03-01T14:46:55;6.60;99.90
1538;DHT22;12022;52.266;10.522;2023-03-01T14:49:30;6.70;99.90
1538;DHT22;12022;52.266;10.522;2023-03-01T14:52:04;6.60;99.90
1538;DHT22;12022;52.266;10.522;2023-03-01T14:54:43;6.60;99.90
1538;DHT22;12022;52.266;10.522;2023-03-01T14:57:20;6.60;99.90
1538;DHT22;12022;52.266;10.522;2023-03-01T14:59:54;6.70;99.90
1538;DHT22;12022;52.266;10.522;2023-03-01T15:02:24;6.70;99.90
1538;DHT22;12022;52.266;10.522;2023-03-01T15:04:54;6.70;99.90
1538;DHT22;12022;52.266;10.522;2023-03-01T15:07:28;6.70;99.90
1538;DHT22;12022;52.266;10.522;2023-03-01T15:09:56;6.70;99.90
1538;DHT22;12022;52.266;10.522;2023-03-01T15:12:44;6.70;99.90
1538;DHT22;12022;52.266;10.522;2023-03-01T15:15:31;6.70;99.90
1538;DHT22;12022;52.266;10.522;2023-03-01T15:18:05;6.80;99.90
1538;DHT22;12022;52.266;10.522;2023-03-01T15:20:38;6.80;99.90
1538;DHT22;12022;52.266;10.522;2023-03-01T15:23:06;6.80;99.90
1538;DHT22;12022;52.266;10.522;2023-03-01T15:25:44;6.80;99.90
1538;DHT22;12022;52.266;10.522;2023-03-01T15:28:19;6.90;99.90
1538;DHT22;12022;52.266;10.522;2023-03-01T15:30:53;6.90;99.90
1538;DHT22;12022;52.266;10.522;2023-03-01T15:35:50;6.90;99.90
1538;DHT22;12022;52.266;10.522;2023-03-01T15:38:28;6.90;99.90
1538;DHT22;12022;52.266;10.522;2023-03-01T15:40:57;7.00;99.90
1538;DHT22;12022;52.266;10.522;2023-03-01T15:44:00;6.90;99.90
1538;DHT22;12022;52.266;10.522;2023-03-01T15:46:31;6.90;99.90
1538;DHT22;12022;52.266;10.522;2023-03-01T15:49:02;7.00;99.90
1538;DHT22;12022;52.266;10.522;2023-03-01T15:51:33;6.90;99.90
1538;DHT22;12022;52.266;10.522;2023-03-01T15:54:08;6.90;99.90
1538;DHT22;12022;52.266;10.522;2023-03-01T15:56:38;6.90;99.90
1538;DHT22;12022;52.266;10.522;2023-03-01T15:59:05;6.90;99.90
1538;DHT22;12022;52.266;10.522;2023-03-01T16:01:33;6.90;99.90
1538;DHT22;12022;52.266;10.522;2023-03-01T16:04:01;6.90;99.90
1538;DHT22;12022;52.266;10.522;2023-03-01T16:06:28;6.80;99.90
1538;DHT22;12022;52.266;10.522;2023-03-01T16:08:55;6.90;99.90
1538;DHT22;12022;52.266;10.522;2023-03-01T16:11:22;6.80;99.90
1538;DHT22;12022;52.266;10.522;2023-03-01T16:13:49;6.80;99.90
1538;DHT22;12022;52.266;10.522;2023-03-01T16:16:16;6.80;99.90
1538;DHT22;12022;52.266;10.522;2023-03-01T16:18:45;6.80;99.90
1538;DHT22;12022;52.266;10.522;2023-03-01T16:21:24;6.70;99.90
1538;DHT22;12022;52.266;10.522;2023-03-01T16:23:52;6.70;99.90
1538;DHT22;12022;52.266;10.522;2023-03-01T16:26:19;6.70;99.90
1538;DHT22;12022;52.266;10.522;2023-03-01T16:28:47;6.80;99.90
1538;DHT22;12022;52.266;10.522;2023-03-01T16:31:18;6.60;99.90
1538;DHT22;12022;52.266;10.522;2023-03-01T16:33:45;6.50;99.90
1538;DHT22;12022;52.266;10.522;2023-03-01T16:36:19;6.50;99.90
1538;DHT22;12022;52.266;10.522;2023-03-01T16:38:47;6.50;99.90
1538;DHT22;12022;52.266;10.522;2023-03-01T16:41:17;6.40;99.90
1538;DHT22;12022;52.266;10.522;2023-03-01T16:43:44;6.40;99.90
1538;DHT22;12022;52.266;10.522;2023-03-01T16:46:26;6.30;99.90
1538;DHT22;12022;52.266;10.522;2023-03-01T16:48:54;6.30;99.90
1538;DHT22;12022;52.266;10.522;2023-03-01T16:51:22;6.20;99.90
1538;DHT22;12022;52.266;10.522;2023-03-01T16:53:50;6.20;99.90
1538;DHT22;12022;52.266;10.522;2023-03-01T16:56:18;6.10;99.90
1538;DHT22;12022;52.266;10.522;2023-03-01T16:58:45;6.10;99.90
1538;DHT22;12022;52.266;10.522;2023-03-01T17:01:16;6.10;99.90
1538;DHT22;12022;52.266;10.522;2023-03-01T17:03:44;6.00;99.90
1538;DHT22;12022;52.266;10.522;2023-03-01T17:06:16;6.00;99.90
1538;DHT22;12022;52.266;10.522;2023-03-01T17:08:43;6.00;99.90
1538;DHT22;12022;52.266;10.522;2023-03-01T17:11:16;5.80;99.90
1538;DHT22;12022;52.266;10.522;2023-03-01T17:13:43;5.80;99.90
1538;DHT22;12022;52.266;10.522;2023-03-01T17:16:13;5.70;99.90
1538;DHT22;12022;52.266;10.522;2023-03-01T17:18:41;5.60;99.90
1538;DHT22;12022;52.266;10.522;2023-03-01T17:21:08;5.50;99.90
1538;DHT22;12022;52.266;10.522;2023-03-01T17:23:38;5.50;99.90
1538;DHT22;12022;52.266;10.522;2023-03-01T17:26:05;5.40;99.90
1538;DHT22;12022;52.266;10.522;2023-03-01T17:28:34;5.40;99.90
1538;DHT22;12022;52.266;10.522;2023-03-01T17:31:03;5.30;99.90
1538;DHT22;12022;52.266;10.522;2023-03-01T17:33:31;5.30;99.90
1538;DHT22;12022;52.266;10.522;2023-03-01T17:35:59;5.20;99.90
1538;DHT22;12022;52.266;10.522;2023-03-01T17:38:26;5.20;99.90
1538;DHT22;12022;52.266;10.522;2023-03-01T17:40:53;5.10;99.90
1538;DHT22;12022;52.266;10.522;2023-03-01T17:43:23;5.10;99.90